Time;durP1;ratioP1;P1;durP2;ratioP2;P2;SDS_P1;SDS_P2;PMS_P1;PMS_P2;Temp;Humidity;BMP_temperature;BMP_pressure;BME280_temperature;BME280_humidity;BME280_pressure;Samples;Min_cycle;Max_cycle;Signal;HPM_P1;HPM_P2
2022/12/23 00:00:06;;;;;;;1.17;0.77;;;20.50;68.70;;;;;;5031185;28;20029;-77
2022/12/23 00:02:31;;;;;;;2.63;1.00;;;20.50;68.90;;;;;;5032951;28;20025;-78
2022/12/23 00:04:57;;;;;;;1.75;0.95;;;20.50;68.80;;;;;;5031262;28;20380;-77
2022/12/23 00:07:22;;;;;;;2.00;1.02;;;20.50;68.70;;;;;;5032722;28;20472;-78
2022/12/23 00:09:48;;;;;;;1.25;0.70;;;20.50;68.90;;;;;;5030862;28;20028;-77
2022/12/23 00:15:06;;;;;;;3.58;0.80;;;20.50;69.00;;;;;;5031522;28;20080;-77
2022/12/23 00:17:37;;;;;;;1.27;0.80;;;20.50;69.20;;;;;;5032056;28;20022;-77
2022/12/23 00:20:03;;;;;;;1.90;0.68;;;20.50;69.20;;;;;;5031098;28;20033;-77
2022/12/23 00:25:12;;;;;;;1.55;0.82;;;20.50;69.20;;;;;;5031468;28;20035;-77
2022/12/23 00:27:38;;;;;;;2.47;0.70;;;20.50;69.20;;;;;;5030959;28;20025;-77
2022/12/23 00:30:05;;;;;;;2.08;0.88;;;20.50;69.20;;;;;;5031009;28;20492;-77
2022/12/23 00:32:30;;;;;;;0.90;0.70;;;20.50;69.20;;;;;;5030976;28;20026;-77
2022/12/23 00:34:56;;;;;;;2.45;0.70;;;20.50;69.70;;;;;;5030432;28;20048;-77
2022/12/23 00:37:21;;;;;;;1.15;0.70;;;20.50;69.50;;;;;;5030908;28;20047;-77
2022/12/23 00:45:15;;;;;;;2.50;1.23;;;20.50;69.60;;;;;;5031988;28;20071;-77
2022/12/23 00:50:29;;;;;;;2.45;0.70;;;20.50;69.70;;;;;;5031271;28;20037;-77
2022/12/23 00:52:55;;;;;;;1.08;0.70;;;20.50;69.80;;;;;;5030616;28;20033;-77
2022/12/23 00:55:21;;;;;;;1.35;0.80;;;20.50;69.90;;;;;;5014594;28;20127;-77
2022/12/23 00:57:46;;;;;;;1.23;0.85;;;20.50;69.90;;;;;;5014288;28;20061;-77
2022/12/23 01:00:12;;;;;;;1.10;0.60;;;20.50;69.90;;;;;;5030203;28;20125;-75
2022/12/23 01:05:37;;;;;;;1.10;0.68;;;20.50;70.00;;;;;;5030705;28;20046;-75
2022/12/23 01:08:10;;;;;;;1.17;0.77;;;20.40;69.90;;;;;;5030615;28;20496;-77
2022/12/23 01:10:39;;;;;;;1.45;0.90;;;20.50;69.90;;;;;;5030437;28;20026;-77
2022/12/23 01:13:05;;;;;;;1.63;0.73;;;20.50;70.00;;;;;;5031569;28;20042;-77
2022/12/23 01:15:31;;;;;;;1.70;0.82;;;20.50;70.00;;;;;;5030564;28;20025;-77
2022/12/23 01:17:56;;;;;;;0.85;0.50;;;20.40;69.90;;;;;;5030266;28;20033;-77
2022/12/23 01:20:22;;;;;;;0.82;0.65;;;20.40;70.00;;;;;;5030269;28;20115;-77
2022/12/23 01:22:48;;;;;;;1.00;0.57;;;20.40;70.00;;;;;;5034112;28;20032;-77
2022/12/23 01:25:13;;;;;;;0.90;0.60;;;20.40;70.00;;;;;;5036443;28;20018;-77
2022/12/23 01:27:39;;;;;;;1.95;0.90;;;20.40;70.00;;;;;;5034391;28;20041;-77
2022/12/23 01:30:05;;;;;;;1.10;0.57;;;20.40;70.10;;;;;;5034289;28;20503;-77
2022/12/23 01:32:31;;;;;;;2.20;0.60;;;20.40;70.10;;;;;;5034886;28;20105;-77
2022/12/23 01:34:56;;;;;;;1.35;0.70;;;20.50;70.20;;;;;;5034126;28;20063;-77
2022/12/23 01:37:22;;;;;;;0.70;0.55;;;20.50;70.30;;;;;;5035218;28;20129;-77
2022/12/23 01:39:48;;;;;;;0.68;0.52;;;20.40;70.20;;;;;;5034173;28;20569;-77
2022/12/23 01:45:27;;;;;;;0.98;0.70;;;20.40;70.30;;;;;;5034155;28;20113;-78
2022/12/23 01:47:57;;;;;;;0.73;0.68;;;20.40;70.30;;;;;;5035231;28;20025;-77
2022/12/23 01:50:52;;;;;;;0.68;0.52;;;20.40;70.50;;;;;;5033641;28;20506;-77
2022/12/23 01:53:25;;;;;;;0.73;0.50;;;20.50;70.50;;;;;;5032119;28;20045;-77
2022/12/23 01:56:05;;;;;;;3.22;0.65;;;20.50;70.70;;;;;;5035153;28;20072;-77
2022/12/23 01:58:59;;;;;;;1.27;0.60;;;20.50;70.70;;;;;;5018700;28;20022;-77
2022/12/23 02:04:11;;;;;;;2.75;0.75;;;20.40;70.80;;;;;;5021019;28;20033;-77
2022/12/23 02:09:23;;;;;;;2.05;0.60;;;20.40;70.90;;;;;;5035208;28;20071;-77
2022/12/23 02:12:10;;;;;;;0.52;0.50;;;20.50;71.00;;;;;;5034681;28;20045;-77
2022/12/23 02:18:04;;;;;;;0.95;0.43;;;20.40;71.10;;;;;;5035069;28;20041;-77
2022/12/23 02:20:51;;;;;;;1.05;0.60;;;20.40;71.00;;;;;;5002600;28;20084;-77
2022/12/23 02:23:54;;;;;;;1.63;0.70;;;20.40;71.10;;;;;;5035707;28;20029;-77
2022/12/23 02:26:57;;;;;;;2.17;0.65;;;20.40;71.10;;;;;;5035551;28;20049;-77
2022/12/23 02:29:48;;;;;;;0.98;0.60;;;20.40;71.20;;;;;;5035456;28;20036;-75
2022/12/23 02:32:22;;;;;;;0.85;0.60;;;20.40;71.10;;;;;;5034121;28;20037;-75
2022/12/23 02:35:15;;;;;;;0.55;0.40;;;20.40;71.20;;;;;;5035036;28;20079;-75
2022/12/23 02:37:50;;;;;;;0.35;0.35;;;20.40;71.20;;;;;;5034012;28;20084;-75
2022/12/23 02:40:30;;;;;;;1.10;0.60;;;20.40;71.30;;;;;;5035079;28;20026;-74
2022/12/23 02:43:11;;;;;;;1.85;0.50;;;20.40;71.30;;;;;;5018787;28;20084;-74
2022/12/23 02:45:44;;;;;;;1.40;0.50;;;20.40;71.30;;;;;;5019032;28;20024;-75
2022/12/23 02:48:33;;;;;;;1.23;0.70;;;20.40;71.40;;;;;;5033893;28;20029;-75
2022/12/23 02:50:59;;;;;;;0.80;0.50;;;20.40;71.40;;;;;;5029131;28;20072;-74
2022/12/23 02:53:30;;;;;;;0.65;0.60;;;20.40;71.50;;;;;;5033979;28;20056;-74
2022/12/23 02:55:56;;;;;;;1.40;0.60;;;20.40;71.60;;;;;;5035205;28;20026;-75
2022/12/23 02:58:23;;;;;;;0.77;0.50;;;20.40;71.50;;;;;;5033727;28;20037;-75
2022/12/23 03:00:49;;;;;;;0.60;0.52;;;20.40;71.60;;;;;;5033429;28;20049;-77
2022/12/23 03:03:16;;;;;;;0.60;0.45;;;20.40;71.60;;;;;;5033457;28;20383;-77
2022/12/23 03:05:45;;;;;;;2.88;0.60;;;20.40;71.60;;;;;;5033615;28;20021;-77
2022/12/23 03:08:23;;;;;;;0.43;0.40;;;20.40;71.60;;;;;;5033494;28;20029;-77
2022/12/23 03:11:11;;;;;;;1.08;0.65;;;20.40;71.70;;;;;;5033663;28;20030;-78
2022/12/23 03:13:49;;;;;;;1.02;0.50;;;20.40;71.70;;;;;;5033232;28;20526;-78
2022/12/23 03:16:32;;;;;;;0.88;0.50;;;20.40;71.80;;;;;;5033587;28;20017;-78
2022/12/23 03:19:23;;;;;;;0.47;0.35;;;20.40;71.70;;;;;;5033624;28;20030;-77
2022/12/23 03:22:06;;;;;;;0.90;0.60;;;20.40;71.70;;;;;;5033286;28;20064;-77
2022/12/23 03:25:00;;;;;;;2.92;0.85;;;20.40;71.80;;;;;;5033390;28;20021;-78
2022/12/23 03:27:27;;;;;;;0.98;0.50;;;20.40;71.80;;;;;;5012078;28;20593;-78
2022/12/23 03:29:57;;;;;;;1.42;0.60;;;20.40;71.90;;;;;;5012543;28;20034;-78
2022/12/23 03:32:23;;;;;;;1.58;0.60;;;20.40;71.90;;;;;;5009118;28;20034;-78
2022/12/23 03:34:49;;;;;;;0.40;0.28;;;20.40;72.00;;;;;;5008851;28;20525;-78
2022/12/23 03:37:15;;;;;;;1.35;0.50;;;20.40;72.00;;;;;;5025607;28;20027;-77
2022/12/23 03:40:13;;;;;;;0.50;0.50;;;20.40;72.00;;;;;;5012879;28;20149;-78
2022/12/23 03:42:39;;;;;;;0.80;0.35;;;20.40;72.00;;;;;;4999378;28;20053;-77
2022/12/23 03:45:25;;;;;;;0.50;0.47;;;20.40;72.20;;;;;;4995012;28;20173;-77
2022/12/23 03:47:59;;;;;;;0.93;0.45;;;20.40;72.10;;;;;;4995977;28;20033;-78
2022/12/23 03:50:25;;;;;;;0.50;0.50;;;20.40;72.20;;;;;;4995704;28;20037;-77
2022/12/23 03:52:56;;;;;;;1.70;0.50;;;20.40;72.20;;;;;;4995903;28;20029;-78
2022/12/23 03:55:32;;;;;;;0.43;0.35;;;20.40;72.20;;;;;;4995499;28;20512;-78
2022/12/23 03:58:08;;;;;;;0.57;0.40;;;20.40;72.20;;;;;;4995456;28;20122;-78
2022/12/23 04:00:37;;;;;;;0.30;0.30;;;20.40;72.30;;;;;;4995163;28;20046;-78
2022/12/23 04:03:10;;;;;;;1.55;0.43;;;20.40;72.40;;;;;;4995563;28;20026;-78
2022/12/23 04:05:37;;;;;;;0.82;0.52;;;20.40;73.40;;;;;;5032189;28;20044;-78
2022/12/23 04:08:10;;;;;;;0.28;0.28;;;20.40;72.40;;;;;;5015967;28;20036;-77
2022/12/23 04:10:36;;;;;;;1.67;0.57;;;20.40;72.40;;;;;;5032402;28;20368;-77
2022/12/23 04:13:01;;;;;;;0.85;0.40;;;20.40;72.50;;;;;;4999603;28;20034;-77
2022/12/23 04:15:27;;;;;;;0.60;0.50;;;20.40;72.50;;;;;;5015988;28;20029;-77
2022/12/23 04:17:53;;;;;;;1.75;0.57;;;20.40;72.50;;;;;;5015848;28;20036;-77
2022/12/23 04:20:19;;;;;;;0.68;0.35;;;20.40;72.60;;;;;;5015650;28;20032;-77
2022/12/23 04:22:45;;;;;;;0.68;0.43;;;20.40;72.70;;;;;;5032466;28;20022;-77
2022/12/23 04:25:11;;;;;;;1.15;0.40;;;20.40;72.70;;;;;;5015550;28;20361;-77
2022/12/23 04:27:37;;;;;;;0.60;0.60;;;20.40;72.70;;;;;;5032018;28;20032;-77
2022/12/23 04:30:04;;;;;;;1.45;0.52;;;20.40;72.80;;;;;;5033261;28;20439;-77
2022/12/23 04:32:29;;;;;;;0.70;0.50;;;20.40;72.70;;;;;;5033101;28;20422;-77
2022/12/23 04:34:55;;;;;;;0.82;0.50;;;20.40;72.80;;;;;;5032100;28;20025;-77
2022/12/23 04:37:21;;;;;;;0.80;0.45;;;20.40;72.80;;;;;;5031731;28;20033;-77
2022/12/23 04:39:46;;;;;;;0.73;0.30;;;20.40;72.90;;;;;;5031976;28;20026;-77
2022/12/23 04:42:12;;;;;;;0.82;0.40;;;20.40;72.90;;;;;;5033206;28;20034;-77
2022/12/23 04:44:37;;;;;;;0.88;0.40;;;20.40;72.90;;;;;;5033210;28;20017;-77
2022/12/23 04:47:03;;;;;;;0.90;0.50;;;20.40;72.90;;;;;;5032067;28;20416;-77
2022/12/23 04:49:29;;;;;;;0.50;0.40;;;20.40;73.00;;;;;;5033092;28;20464;-77
2022/12/23 04:51:55;;;;;;;0.93;0.38;;;20.40;73.00;;;;;;5033043;28;20032;-77
2022/12/23 04:54:21;;;;;;;0.70;0.50;;;20.40;73.00;;;;;;5031513;28;20029;-77
2022/12/23 04:56:46;;;;;;;0.80;0.50;;;20.40;73.10;;;;;;5032891;28;20029;-77
2022/12/23 04:59:12;;;;;;;1.13;0.35;;;20.40;73.10;;;;;;5033074;28;20026;-78
2022/12/23 05:01:38;;;;;;;0.52;0.32;;;20.40;73.10;;;;;;5032362;28;20053;-77
2022/12/23 05:04:03;;;;;;;0.60;0.45;;;20.40;73.10;;;;;;5031680;28;20033;-78
2022/12/23 05:06:29;;;;;;;0.50;0.50;;;20.40;73.20;;;;;;5031512;28;20034;-77
2022/12/23 05:08:55;;;;;;;1.25;0.52;;;20.40;73.30;;;;;;5032790;28;20024;-78
2022/12/23 05:11:20;;;;;;;0.52;0.40;;;20.40;73.30;;;;;;5031500;28;20040;-78
2022/12/23 05:13:46;;;;;;;0.75;0.50;;;20.40;73.40;;;;;;5031672;28;20514;-78
2022/12/23 05:16:12;;;;;;;0.70;0.32;;;20.40;73.40;;;;;;5032684;28;20057;-78
2022/12/23 05:18:37;;;;;;;0.73;0.45;;;20.40;73.40;;;;;;5031652;28;20067;-78
2022/12/23 05:21:03;;;;;;;0.30;0.30;;;20.40;73.50;;;;;;5032652;28;20040;-78
2022/12/23 05:23:29;;;;;;;0.57;0.30;;;20.30;73.50;;;;;;5031359;28;20032;-78
2022/12/23 05:25:54;;;;;;;1.27;0.63;;;20.40;73.60;;;;;;5031509;28;20046;-78
2022/12/23 05:28:21;;;;;;;0.52;0.40;;;20.40;73.60;;;;;;5031508;28;20040;-78
2022/12/23 05:30:46;;;;;;;0.57;0.40;;;20.40;73.50;;;;;;5031336;28;20033;-78
2022/12/23 05:33:13;;;;;;;0.75;0.40;;;20.30;73.60;;;;;;5031284;28;20079;-75
2022/12/23 05:35:38;;;;;;;0.55;0.30;;;20.40;73.60;;;;;;5031335;28;20037;-75
2022/12/23 05:38:04;;;;;;;1.08;0.38;;;20.30;73.50;;;;;;5014768;28;20026;-75
2022/12/23 05:40:30;;;;;;;0.70;0.40;;;20.30;73.60;;;;;;5031222;28;20025;-75
2022/12/23 05:42:56;;;;;;;0.85;0.52;;;20.40;73.70;;;;;;5031487;28;20361;-78
2022/12/23 05:45:21;;;;;;;0.60;0.40;;;20.30;73.60;;;;;;5014657;28;20117;-77
2022/12/23 05:47:47;;;;;;;0.70;0.40;;;20.30;73.60;;;;;;5032732;28;20064;-74
2022/12/23 05:50:13;;;;;;;0.88;0.43;;;20.30;73.70;;;;;;5031239;28;20053;-74
2022/12/23 05:52:38;;;;;;;0.65;0.40;;;20.30;73.70;;;;;;5031176;28;20036;-74
2022/12/23 05:55:04;;;;;;;0.85;0.40;;;20.30;73.70;;;;;;5032384;28;20057;-74
2022/12/23 05:57:31;;;;;;;0.45;0.40;;;20.30;73.90;;;;;;5030985;28;20022;-74
2022/12/23 05:59:57;;;;;;;0.63;0.50;;;20.30;73.70;;;;;;5031022;28;20029;-75
2022/12/23 06:02:23;;;;;;;0.50;0.50;;;20.30;73.70;;;;;;5014544;28;20026;-75
2022/12/23 06:04:48;;;;;;;0.98;0.32;;;20.30;73.80;;;;;;5014578;28;20033;-75
2022/12/23 06:07:15;;;;;;;0.63;0.40;;;20.40;73.90;;;;;;5030895;28;20033;-74
2022/12/23 06:09:40;;;;;;;0.88;0.40;;;20.30;73.90;;;;;;5017342;28;20025;-75
2022/12/23 06:12:06;;;;;;;0.60;0.45;;;20.30;73.90;;;;;;5035942;28;20028;-75
2022/12/23 06:14:31;;;;;;;0.40;0.40;;;20.30;73.90;;;;;;5035705;28;20028;-75
2022/12/23 06:16:57;;;;;;;0.28;0.28;;;20.30;73.90;;;;;;5035848;28;20104;-75
2022/12/23 06:19:23;;;;;;;0.70;0.40;;;20.30;74.00;;;;;;5017939;28;20482;-76
2022/12/23 06:21:49;;;;;;;0.30;0.28;;;20.30;74.00;;;;;;5035660;28;20079;-75
2022/12/23 06:24:14;;;;;;;0.90;0.47;;;20.40;74.10;;;;;;5035288;28;20025;-75
2022/12/23 06:26:41;;;;;;;0.82;0.35;;;20.30;74.00;;;;;;5035269;28;20018;-75
2022/12/23 06:29:06;;;;;;;0.73;0.40;;;20.40;74.10;;;;;;5035547;28;20040;-75
2022/12/23 06:31:32;;;;;;;1.15;0.70;;;20.40;74.20;;;;;;5035204;28;20029;-74
2022/12/23 06:33:58;;;;;;;0.73;0.40;;;20.40;74.20;;;;;;5035631;28;20037;-74
2022/12/23 06:36:23;;;;;;;0.75;0.30;;;20.40;74.30;;;;;;5035153;28;20033;-75
2022/12/23 06:38:49;;;;;;;1.17;0.38;;;20.40;74.40;;;;;;5035236;28;20021;-75
2022/12/23 06:41:15;;;;;;;0.80;0.30;;;20.40;74.40;;;;;;5033853;28;20140;-75
2022/12/23 06:43:40;;;;;;;0.70;0.50;;;20.40;74.20;;;;;;5035035;28;20041;-75
2022/12/23 06:46:06;;;;;;;1.80;0.38;;;20.40;74.30;;;;;;5035211;28;20124;-75
2022/12/23 06:48:32;;;;;;;2.60;0.50;;;20.30;74.40;;;;;;5033951;28;20083;-74
2022/12/23 06:50:57;;;;;;;0.70;0.40;;;20.40;74.40;;;;;;5033343;28;20029;-75
2022/12/23 06:53:23;;;;;;;0.68;0.38;;;20.30;73.60;;;;;;5033700;28;20029;-75
2022/12/23 06:55:49;;;;;;;1.05;0.40;;;20.30;72.60;;;;;;5033730;28;20061;-76
2022/12/23 06:58:14;;;;;;;0.85;0.20;;;20.30;71.90;;;;;;5033595;28;20037;-76
2022/12/23 07:00:40;;;;;;;1.27;0.40;;;20.30;71.60;;;;;;5034677;28;20759;-76
2022/12/23 07:03:06;;;;;;;1.60;0.30;;;20.30;71.20;;;;;;5034907;28;20048;-73
2022/12/23 07:05:33;;;;;;;0.82;0.28;;;20.30;70.90;;;;;;5034294;28;20168;-73
2022/12/23 07:07:58;;;;;;;0.85;0.40;;;20.30;70.80;;;;;;5017261;28;20080;-73
2022/12/23 07:10:24;;;;;;;0.30;0.30;;;20.30;71.00;;;;;;5034687;28;20426;-73
2022/12/23 07:12:49;;;;;;;0.30;0.20;;;20.30;71.40;;;;;;5034735;28;20426;-73
2022/12/23 07:15:15;;;;;;;2.35;0.35;;;20.30;70.90;;;;;;5046851;28;20025;-73
2022/12/23 07:17:41;;;;;;;0.28;0.20;;;20.30;71.10;;;;;;5051893;28;20021;-74
2022/12/23 07:20:07;;;;;;;1.70;0.22;;;20.30;70.60;;;;;;5052767;28;20032;-74
2022/12/23 07:22:33;;;;;;;0.30;0.20;;;20.20;70.40;;;;;;5052388;28;20060;-73
2022/12/23 07:24:58;;;;;;;0.82;0.43;;;20.20;70.50;;;;;;5052612;28;20067;-74
2022/12/23 07:27:24;;;;;;;1.52;0.20;;;20.20;70.50;;;;;;5053979;28;20383;-75
2022/12/23 07:29:50;;;;;;;0.95;0.30;;;20.20;70.50;;;;;;5054147;28;20471;-74
2022/12/23 07:32:15;;;;;;;7.35;1.70;;;20.20;70.00;;;;;;5039301;28;20044;-74
2022/12/23 07:34:41;;;;;;;9.32;2.05;;;20.20;70.00;;;;;;5032143;28;20041;-75
2022/12/23 07:37:06;;;;;;;9.00;2.17;;;20.20;70.10;;;;;;5030892;28;20543;-74
2022/12/23 07:39:33;;;;;;;12.65;2.30;;;20.20;70.30;;;;;;5031039;28;20366;-73
2022/12/23 07:41:59;;;;;;;12.73;2.35;;;20.20;70.30;;;;;;5032479;28;20021;-73
2022/12/23 07:44:24;;;;;;;8.93;2.08;;;20.20;70.50;;;;;;5031483;28;20380;-72
2022/12/23 07:46:50;;;;;;;20.88;2.50;;;20.20;70.40;;;;;;5031491;28;20032;-72
2022/12/23 07:49:15;;;;;;;8.65;2.60;;;20.20;70.40;;;;;;5030973;28;20036;-72
2022/12/23 07:51:41;;;;;;;13.48;2.95;;;20.20;70.40;;;;;;5032972;28;20029;-72
2022/12/23 07:54:07;;;;;;;14.73;2.40;;;20.20;70.40;;;;;;5032077;28;20032;-72
2022/12/23 07:56:32;;;;;;;8.82;2.20;;;20.20;70.40;;;;;;5033310;28;20092;-72
2022/12/23 07:58:58;;;;;;;14.00;2.65;;;20.20;70.10;;;;;;5032983;28;20454;-72
2022/12/23 08:01:23;;;;;;;13.80;2.70;;;20.20;70.10;;;;;;5030506;28;20046;-72
2022/12/23 08:03:49;;;;;;;10.00;2.80;;;20.20;70.10;;;;;;5031839;28;20048;-73
2022/12/23 08:06:15;;;;;;;10.00;2.55;;;20.20;69.90;;;;;;5031693;28;20507;-73
2022/12/23 08:08:44;;;;;;;11.43;2.78;;;20.20;69.80;;;;;;5031747;28;20018;-72
2022/12/23 08:11:11;;;;;;;10.95;2.42;;;20.20;69.80;;;;;;5031855;28;20021;-72
2022/12/23 08:13:38;;;;;;;8.90;2.72;;;20.20;69.80;;;;;;5031735;28;20036;-72
2022/12/23 08:16:05;;;;;;;10.50;3.28;;;20.20;69.80;;;;;;5031975;28;20022;-72
2022/12/23 08:18:32;;;;;;;10.68;2.83;;;20.20;70.70;;;;;;5031378;28;20034;-72
2022/12/23 08:21:02;;;;;;;7.82;2.75;;;20.20;69.70;;;;;;5031686;28;20037;-72
2022/12/23 08:23:28;;;;;;;11.18;2.65;;;20.20;69.60;;;;;;5025909;28;20438;-72
2022/12/23 08:26:08;;;;;;;8.98;2.72;;;20.20;69.50;;;;;;5012224;28;20025;-72
2022/12/23 08:28:34;;;;;;;8.50;2.25;;;20.20;69.50;;;;;;5011872;28;20072;-72
2022/12/23 08:31:09;;;;;;;8.15;2.22;;;20.20;69.50;;;;;;5014440;28;20032;-75
2022/12/23 08:33:35;;;;;;;7.35;2.53;;;20.20;69.50;;;;;;5031338;28;20501;-75
2022/12/23 08:36:01;;;;;;;9.98;2.30;;;20.20;69.50;;;;;;5031592;28;20476;-75
2022/12/23 08:38:27;;;;;;;6.35;2.05;;;20.20;69.40;;;;;;5031457;28;20033;-75
2022/12/23 08:40:52;;;;;;;9.77;2.70;;;20.20;69.50;;;;;;5031300;28;20079;-75
2022/12/23 08:43:18;;;;;;;8.57;2.70;;;20.20;69.40;;;;;;5031348;28;20372;-75
2022/12/23 08:45:44;;;;;;;5.90;2.20;;;20.20;69.40;;;;;;5030976;28;20535;-75
2022/12/23 08:48:09;;;;;;;5.20;2.30;;;20.20;69.30;;;;;;5031480;28;20562;-75
2022/12/23 08:50:39;;;;;;;7.38;2.13;;;20.20;69.30;;;;;;5032353;28;20056;-75
2022/12/23 08:53:05;;;;;;;7.05;2.20;;;20.20;69.30;;;;;;5031434;28;20014;-75
2022/12/23 08:55:38;;;;;;;6.47;2.33;;;20.20;69.30;;;;;;5031006;28;20021;-75
2022/12/23 08:58:04;;;;;;;6.78;2.33;;;20.20;69.30;;;;;;5020337;28;20014;-73
2022/12/23 09:00:30;;;;;;;5.55;2.20;;;20.20;69.30;;;;;;5012252;28;20078;-73
2022/12/23 09:02:55;;;;;;;7.15;2.10;;;20.20;69.30;;;;;;5012726;28;20392;-72
2022/12/23 09:05:21;;;;;;;6.25;2.28;;;20.20;69.30;;;;;;5012473;28;20496;-72
2022/12/23 09:07:47;;;;;;;5.85;2.13;;;20.20;69.30;;;;;;5012396;28;20113;-72
2022/12/23 09:10:12;;;;;;;6.88;2.00;;;20.20;69.20;;;;;;5012445;28;20036;-72
2022/12/23 09:12:38;;;;;;;5.97;2.15;;;20.20;69.20;;;;;;5012425;28;20034;-72
2022/12/23 09:15:04;;;;;;;6.50;2.05;;;20.20;69.20;;;;;;5012558;28;20033;-72
2022/12/23 09:17:30;;;;;;;5.88;2.17;;;20.20;69.20;;;;;;5011065;28;20034;-72
2022/12/23 09:19:55;;;;;;;5.82;1.75;;;20.20;69.20;;;;;;5012405;28;20026;-72
2022/12/23 09:22:21;;;;;;;5.53;1.80;;;20.10;69.10;;;;;;5011108;28;20030;-72
2022/12/23 09:24:46;;;;;;;4.75;1.63;;;20.20;69.20;;;;;;5011089;28;20030;-72
2022/12/23 09:27:12;;;;;;;4.03;1.95;;;20.20;69.10;;;;;;5012353;28;20033;-72
2022/12/23 09:29:38;;;;;;;3.83;1.88;;;20.20;69.10;;;;;;5012071;28;20401;-72
2022/12/23 09:32:03;;;;;;;5.93;2.05;;;20.10;69.00;;;;;;5022497;28;20045;-72
2022/12/23 09:34:29;;;;;;;6.57;2.22;;;20.10;69.10;;;;;;5030780;28;20036;-72
2022/12/23 09:36:55;;;;;;;6.15;2.22;;;20.10;69.10;;;;;;5030933;28;20024;-72
2022/12/23 09:39:20;;;;;;;5.75;1.92;;;20.10;69.00;;;;;;5032022;28;20538;-72
2022/12/23 09:41:52;;;;;;;5.22;2.10;;;20.10;70.10;;;;;;5030631;28;20112;-72
2022/12/23 09:44:37;;;;;;;5.33;1.83;;;20.20;70.10;;;;;;5034241;28;20087;-72
2022/12/23 09:47:04;;;;;;;6.25;2.08;;;20.20;69.10;;;;;;5034642;28;20017;-72
2022/12/23 09:49:30;;;;;;;4.38;1.80;;;20.10;68.90;;;;;;5034441;28;20022;-72
2022/12/23 09:51:59;;;;;;;4.60;1.75;;;20.10;68.90;;;;;;5035682;28;20108;-72
2022/12/23 09:54:28;;;;;;;2.65;1.45;;;20.10;68.90;;;;;;5034466;28;20487;-72
2022/12/23 09:57:16;;;;;;;5.32;1.50;;;20.10;68.80;;;;;;5033096;28;20476;-72
2022/12/23 10:00:17;;;;;;;6.93;1.85;;;20.10;68.80;;;;;;5014477;28;20030;-72
2022/12/23 10:02:51;;;;;;;4.68;1.67;;;20.10;68.70;;;;;;4993626;28;20579;-72
2022/12/23 10:05:44;;;;;;;4.75;1.70;;;20.10;68.70;;;;;;4978448;28;20046;-72
2022/12/23 10:08:10;;;;;;;;;;;20.10;68.70;;;;;;4980207;28;20035;-72
2022/12/23 10:10:38;;;;;;;4.95;1.65;;;20.10;68.70;;;;;;4993759;28;19905;-72
2022/12/23 10:13:05;;;;;;;5.85;1.52;;;20.10;68.70;;;;;;4977685;28;20034;-72
2022/12/23 10:15:41;;;;;;;5.63;1.67;;;20.10;68.60;;;;;;4961439;28;20389;-72
2022/12/23 10:18:43;;;;;;;4.50;2.00;;;20.10;68.60;;;;;;4961836;28;20544;-72
2022/12/23 10:21:19;;;;;;;5.53;1.73;;;20.10;68.50;;;;;;4962552;28;20515;-72
2022/12/23 10:23:48;;;;;;;6.65;2.13;;;20.10;68.60;;;;;;4962120;28;20053;-72
2022/12/23 10:26:23;;;;;;;4.65;1.63;;;20.10;68.30;;;;;;4961460;28;20018;-73
2022/12/23 10:29:10;;;;;;;5.85;2.03;;;20.10;69.40;;;;;;4961506;28;20026;-73
2022/12/23 10:32:17;;;;;;;5.75;2.20;;;20.10;68.40;;;;;;4970360;28;20025;-73
2022/12/23 10:35:20;;;;;;;5.65;2.00;;;20.10;68.30;;;;;;5012306;28;20046;-73
2022/12/23 10:37:56;;;;;;;6.55;2.20;;;20.10;68.30;;;;;;5014831;28;20034;-75
2022/12/23 10:40:25;;;;;;;4.55;1.80;;;20.10;68.40;;;;;;4997426;28;20034;-73
2022/12/23 10:42:56;;;;;;;4.38;1.77;;;20.10;68.20;;;;;;5013310;28;20033;-74
2022/12/23 10:45:39;;;;;;;4.82;1.67;;;20.10;68.20;;;;;;5014904;28;20029;-74
2022/12/23 10:48:37;;;;;;;4.90;1.85;;;20.10;68.20;;;;;;5013570;28;20014;-74
2022/12/23 10:51:03;;;;;;;5.40;1.90;;;20.10;68.20;;;;;;5013696;28;20485;-75
2022/12/23 10:53:45;;;;;;;4.22;1.55;;;20.10;68.20;;;;;;5013698;28;20021;-75
2022/12/23 10:56:10;;;;;;;4.07;1.52;;;20.10;68.20;;;;;;5014546;28;20022;-75
2022/12/23 10:58:39;;;;;;;5.47;1.90;;;20.10;68.20;;;;;;5028526;28;20030;-75
2022/12/23 11:01:06;;;;;;;5.32;1.85;;;20.10;68.10;;;;;;5016667;28;20049;-75
2022/12/23 11:03:41;;;;;;;5.30;1.98;;;20.10;68.10;;;;;;5033242;28;20079;-75
2022/12/23 11:06:07;;;;;;;5.93;1.60;;;20.10;68.00;;;;;;5016797;28;20101;-75
2022/12/23 11:08:34;;;;;;;4.82;1.70;;;20.10;68.00;;;;;;5016707;28;20092;-75
2022/12/23 11:11:02;;;;;;;6.15;2.20;;;20.10;68.00;;;;;;5016297;28;20034;-75
2022/12/23 11:13:33;;;;;;;3.75;1.67;;;20.00;67.80;;;;;;5017058;28;20483;-74
2022/12/23 11:16:22;;;;;;;5.15;1.90;;;20.00;67.90;;;;;;5032966;28;20480;-73
2022/12/23 11:19:02;;;;;;;5.30;1.55;;;20.10;67.70;;;;;;5032730;28;20040;-73
2022/12/23 11:21:28;;;;;;;4.78;2.00;;;20.00;67.70;;;;;;5034311;28;20037;-72
2022/12/23 11:24:06;;;;;;;6.82;2.05;;;20.00;67.50;;;;;;5016246;28;20017;-72
2022/12/23 11:26:31;;;;;;;5.85;1.90;;;20.00;67.50;;;;;;5033675;28;20546;-72
2022/12/23 11:29:03;;;;;;;7.72;2.13;;;20.10;67.60;;;;;;5016254;28;20061;-72
2022/12/23 11:31:33;;;;;;;4.57;1.83;;;20.00;67.50;;;;;;5016525;28;20056;-72
2022/12/23 11:34:01;;;;;;;5.60;1.95;;;20.00;67.50;;;;;;5032698;28;20110;-72
2022/12/23 11:36:27;;;;;;;5.70;2.00;;;20.10;67.60;;;;;;5032558;28;20032;-72
2022/12/23 11:39:11;;;;;;;5.93;2.00;;;20.10;67.70;;;;;;5032407;28;20483;-72
2022/12/23 11:41:44;;;;;;;5.65;1.73;;;20.00;67.60;;;;;;5033231;28;20033;-72
2022/12/23 11:44:25;;;;;;;3.65;1.73;;;20.10;67.50;;;;;;5032535;28;20092;-72
2022/12/23 11:46:51;;;;;;;4.63;1.73;;;20.00;67.50;;;;;;5032203;28;20033;-72
2022/12/23 11:49:26;;;;;;;3.95;1.65;;;20.00;67.50;;;;;;5033480;28;20384;-72
2022/12/23 11:52:04;;;;;;;6.65;2.08;;;20.10;67.30;;;;;;5032109;28;20026;-72
2022/12/23 11:54:29;;;;;;;6.68;2.35;;;20.00;67.40;;;;;;5033167;28;20029;-72
2022/12/23 11:56:55;;;;;;;8.93;2.20;;;20.00;67.40;;;;;;5030665;28;20033;-72
2022/12/23 11:59:26;;;;;;;5.45;1.90;;;20.00;67.50;;;;;;5012185;28;20022;-72
2022/12/23 12:01:52;;;;;;;5.25;1.80;;;20.00;67.30;;;;;;5013157;28;20049;-72
2022/12/23 12:04:21;;;;;;;5.05;2.15;;;20.00;67.40;;;;;;4995798;28;20113;-72
2022/12/23 12:06:47;;;;;;;6.75;2.00;;;20.10;67.50;;;;;;5011322;28;20103;-72
2022/12/23 12:09:13;;;;;;;5.55;2.05;;;20.00;67.50;;;;;;4995758;28;20053;-72
2022/12/23 12:11:46;;;;;;;4.85;1.95;;;20.00;67.40;;;;;;5012089;28;20061;-72
2022/12/23 12:14:22;;;;;;;6.15;2.15;;;20.00;67.40;;;;;;5012151;28;20025;-72
2022/12/23 12:16:56;;;;;;;5.90;2.03;;;20.00;67.30;;;;;;5011851;28;20029;-72
2022/12/23 12:19:35;;;;;;;3.42;1.63;;;20.00;67.40;;;;;;5012154;28;20037;-72
2022/12/23 12:22:09;;;;;;;3.65;1.65;;;20.00;67.30;;;;;;5011797;28;20026;-72
2022/12/23 12:24:43;;;;;;;4.15;1.70;;;20.00;67.30;;;;;;5011927;28;20028;-72
2022/12/23 12:27:09;;;;;;;5.80;1.80;;;20.00;67.30;;;;;;5011957;28;20018;-72
2022/12/23 12:29:46;;;;;;;6.45;1.98;;;20.00;67.30;;;;;;5011704;28;20064;-72
2022/12/23 12:32:54;;;;;;;4.75;1.60;;;20.00;67.30;;;;;;5024317;28;20034;-72
2022/12/23 12:35:42;;;;;;;5.20;1.77;;;20.00;67.20;;;;;;5031201;28;20403;-72
2022/12/23 12:38:40;;;;;;;5.35;2.15;;;20.00;67.20;;;;;;5032457;28;20455;-72
2022/12/23 12:41:27;;;;;;;4.07;1.50;;;20.00;67.20;;;;;;5030201;28;20076;-73
2022/12/23 12:43:58;;;;;;;3.80;1.35;;;20.00;67.20;;;;;;5013720;28;20029;-72
2022/12/23 12:46:26;;;;;;;5.40;1.83;;;20.00;67.20;;;;;;5014146;28;20025;-72
2022/12/23 12:49:30;;;;;;;6.32;1.85;;;20.00;67.10;;;;;;5013801;28;20025;-72
2022/12/23 12:52:09;;;;;;;6.05;2.00;;;20.00;67.20;;;;;;5013763;28;20119;-75
2022/12/23 12:54:44;;;;;;;3.95;1.63;;;20.00;67.30;;;;;;5014886;28;20440;-75
2022/12/23 12:57:15;;;;;;;2.35;1.33;;;20.00;67.20;;;;;;4995353;28;20022;-75
2022/12/23 12:59:40;;;;;;;6.82;2.28;;;20.10;67.20;;;;;;4978083;28;20030;-75
2022/12/23 13:02:27;;;;;;;6.20;1.85;;;20.00;67.10;;;;;;4993846;28;20056;-75
2022/12/23 13:05:09;;;;;;;4.72;1.58;;;20.00;67.10;;;;;;5010283;28;20593;-75
2022/12/23 13:07:53;;;;;;;4.35;1.75;;;20.00;67.20;;;;;;4993934;28;20116;-75
2022/12/23 13:10:45;;;;;;;6.07;2.00;;;20.00;67.10;;;;;;5010277;28;20056;-75
2022/12/23 13:13:44;;;;;;;4.38;1.50;;;20.00;67.10;;;;;;4994167;28;20397;-75
2022/12/23 13:16:41;;;;;;;3.55;1.83;;;20.00;67.60;;;;;;5010911;28;20037;-75
2022/12/23 13:19:28;;;;;;;4.35;1.65;;;20.00;67.10;;;;;;5016415;28;20022;-75
2022/12/23 13:22:13;;;;;;;3.95;1.50;;;20.00;67.10;;;;;;5016299;28;20026;-75
2022/12/23 13:25:12;;;;;;;4.38;1.63;;;20.00;67.10;;;;;;5015238;28;20534;-75
2022/12/23 13:28:05;;;;;;;5.47;1.83;;;20.00;67.00;;;;;;5016259;28;20037;-75
2022/12/23 13:30:33;;;;;;;4.13;1.85;;;20.00;67.00;;;;;;5015318;28;20028;-75
2022/12/23 13:33:20;;;;;;;3.97;1.67;;;20.00;67.00;;;;;;5034086;28;20455;-75